Overview Statistics Trail Chart Weather Telemetry Raw packets
 

This is the latest recevied packets stored in our database for station/object OE5MHX-11. If no packets are shown the sender has not sent any packets the latest 24 hours.

If you compare the raw packets with similar data from other websites it may differ (especially the path), the reason is that we are not collecting packets from the same APRS-IS servers. Each APRS-IS server performes duplicate filtering, and which packet that is considered to be a duplicate may differ depending on which APRS-IS server you receive your data from.

<< 1 2 3 4 >>

1788571484: OE5MHX-11>APRSMC,TCPIP*,qAR,OE5MHX-12:T#419,967.7,20.9,55.2,1017.3,20.8,00000000

1788571484: OE5MHX-11>APRSMC,TCPIP*,qAR,OE5MHX-12:!4802.73N/01256.92E_OE5MHX Schuppen#Hans JN68LB/B=100/A=001398/N1

1788569654: OE5MHX-11>APRSMC,TCPIP*,qAR,OE5MHX-12:T#418,967.6,20.9,54.9,1017.2,20.9,00000000

1788569654: OE5MHX-11>APRSMC,TCPIP*,qAR,OE5MHX-12:!4802.73N/01256.92E_OE5MHX Schuppen#Hans JN68LB/B=100/A=001381/N1

1788567824: OE5MHX-11>APRSMC,TCPIP*,qAR,OE5MHX-12:T#417,967.2,21.0,54.2,1016.8,21.0,00000000

1788567824: OE5MHX-11>APRSMC,TCPIP*,qAR,OE5MHX-12:!4802.73N/01256.93E_OE5MHX Schuppen#Hans JN68LB/B=100/A=001467/N1

1788565995: OE5MHX-11>APRSMC,TCPIP*,qAR,OE5MHX-12:T#416,967.1,21.1,53.7,1016.7,21.0,00000000

1788565995: OE5MHX-11>APRSMC,TCPIP*,qAR,OE5MHX-12:!4802.73N/01256.93E_OE5MHX Schuppen#Hans JN68LB/B=100/A=001398/N1

1788564164: OE5MHX-11>APRSMC,TCPIP*,qAR,OE5MHX-12:T#415,967.0,21.2,52.7,1016.5,21.1,00000000

1788564164: OE5MHX-11>APRSMC,TCPIP*,qAR,OE5MHX-12:!4802.74N/01256.92E_OE5MHX Schuppen#Hans JN68LB/B=100/A=001394/N1

1788562333: OE5MHX-11>APRSMC,TCPIP*,qAR,OE5MHX-12:T#414,966.8,21.4,51.8,1016.4,21.1,00000000

1788562333: OE5MHX-11>APRSMC,TCPIP*,qAR,OE5MHX-12:!4802.73N/01256.93E_OE5MHX Schuppen#Hans JN68LB/B=100/A=001378/N1

1788560507: OE5MHX-11>APRSMC,TCPIP*,qAR,OE5MHX-12:T#413,966.7,21.7,51.0,1016.1,21.1,00000000

1788560507: OE5MHX-11>APRSMC,TCPIP*,qAR,OE5MHX-12:!4802.73N/01256.93E_OE5MHX Schuppen#Hans JN68LB/B=100/A=001404/N1

1788558673: OE5MHX-11>APRSMC,TCPIP*,qAR,OE5MHX-12:T#412,966.6,22.2,49.8,1016.0,21.5,00000000

1788558673: OE5MHX-11>APRSMC,TCPIP*,qAR,OE5MHX-12:!4802.73N/01256.93E_OE5MHX Schuppen#Hans JN68LB/B=100/A=001424/N1

1788556842: OE5MHX-11>APRSMC,TCPIP*,qAR,OE5MHX-12::OE5MHX-11:UNIT.hPa,C deg,%,hPa,C deg,Y/N,O/N,O/N,O/N,O/N,O/N,O/N,O/N

1788556842: OE5MHX-11>APRSMC,TCPIP*,qAR,OE5MHX-12:!4802.73N/01256.92E_OE5MHX Schuppen#Hans JN68LB/B=100/A=001457/N1

1788556842: OE5MHX-11>APRSMC,TCPIP*,qAR,OE5MHX-12::OE5MHX-11:EQNS.0,1,0,0,1,0,0,1,0,0,1,0,0,1,0

1788556842: OE5MHX-11>APRSMC,TCPIP*,qAR,OE5MHX-12::OE5MHX-11:PARM.Press,Temp.in,Hum,QNH,Temp.out,track,-,-,-,-,-,-,-

1788556842: OE5MHX-11>APRSMC,TCPIP*,qAR,OE5MHX-12:T#411,966.6,22.7,48.9,1015.9,22.0,00000000

1788555020: OE5MHX-11>APRSMC,TCPIP*,qAR,OE5MHX-12:T#410,966.4,23.3,48.0,1015.6,22.9,00000000

1788555020: OE5MHX-11>APRSMC,TCPIP*,qAR,OE5MHX-12:!4802.74N/01256.92E_OE5MHX Schuppen#Hans JN68LB/B=100/A=001434/N1

1788553184: OE5MHX-11>APRSMC,TCPIP*,qAR,OE5MHX-12:T#409,966.5,23.9,46.7,1015.5,23.6,00000000

1788553184: OE5MHX-11>APRSMC,TCPIP*,qAR,OE5MHX-12:!4802.73N/01256.93E_OE5MHX Schuppen#Hans JN68LB/B=100/A=001414/N1